Time;durP1;ratioP1;P1;durP2;ratioP2;P2;SDS_P1;SDS_P2;PMS_P1;PMS_P2;Temp;Humidity;BMP_temperature;BMP_pressure;BME280_temperature;BME280_humidity;BME280_pressure;Samples;Min_cycle;Max_cycle;Signal;HPM_P1;HPM_P2
2022/11/17 00:00:18;;;;;;;1.60;1.40;;;7.80;99.90;;;;;;5069917;28;20244;-48
2022/11/17 00:02:47;;;;;;;2.47;1.10;;;7.80;99.90;;;;;;5069172;28;20213;-48
2022/11/17 00:05:15;;;;;;;1.33;1.13;;;7.80;99.90;;;;;;5069614;28;20214;-49
2022/11/17 00:07:44;;;;;;;1.63;1.30;;;7.90;99.90;;;;;;5060089;28;20673;-48
2022/11/17 00:10:11;;;;;;;1.20;1.20;;;7.80;99.90;;;;;;5068731;28;20287;-48
2022/11/17 00:15:22;;;;;;;2.00;1.67;;;7.90;99.90;;;;;;5064076;28;20323;-49
2022/11/17 00:21:17;;;;;;;2.43;2.23;;;7.80;99.90;;;;;;5065134;28;20234;-50
2022/11/17 00:23:23;;;;;;;3.53;2.47;;;7.80;99.90;;;;;;5068834;28;20209;-49
2022/11/17 00:25:50;;;;;;;4.60;1.80;;;7.80;99.90;;;;;;5068893;28;20202;-49
2022/11/17 00:28:17;;;;;;;2.33;2.13;;;7.80;99.90;;;;;;5067630;28;20219;-49
2022/11/17 00:36:15;;;;;;;3.87;3.57;;;7.70;99.90;;;;;;5063967;28;20714;-48
2022/11/17 00:38:42;;;;;;;3.03;2.73;;;7.80;99.90;;;;;;5067888;28;20269;-50
2022/11/17 00:41:09;;;;;;;3.70;2.23;;;7.70;99.90;;;;;;5068269;28;20233;-48
2022/11/17 00:43:36;;;;;;;2.63;1.77;;;7.70;99.90;;;;;;5067877;28;20293;-48
2022/11/17 00:46:04;;;;;;;2.30;2.13;;;7.80;99.90;;;;;;5069280;28;20231;-49
2022/11/17 00:48:32;;;;;;;2.30;2.20;;;7.80;99.90;;;;;;5067789;28;20243;-49
2022/11/17 00:51:03;;;;;;;2.50;2.00;;;7.80;99.90;;;;;;5069879;28;20206;-48
2022/11/17 00:53:30;;;;;;;4.30;1.80;;;7.80;99.90;;;;;;5067791;28;20291;-49
2022/11/17 00:55:57;;;;;;;2.67;2.47;;;7.80;99.90;;;;;;5069489;28;20206;-48
2022/11/17 00:58:24;;;;;;;2.20;1.87;;;7.80;99.90;;;;;;5068403;28;20219;-48
2022/11/17 01:00:51;;;;;;;2.27;1.83;;;7.90;99.90;;;;;;5069237;28;20208;-49
2022/11/17 01:03:18;;;;;;;2.23;2.03;;;7.90;99.90;;;;;;5069002;28;20238;-48
2022/11/17 01:05:47;;;;;;;3.53;1.40;;;7.90;99.90;;;;;;5068508;28;20199;-48
2022/11/17 01:08:14;;;;;;;4.43;1.77;;;7.90;99.90;;;;;;5068195;28;20733;-48
2022/11/17 01:10:41;;;;;;;1.90;1.20;;;7.90;99.90;;;;;;5069332;28;20198;-49
2022/11/17 01:13:08;;;;;;;1.43;1.33;;;7.90;99.90;;;;;;5068387;28;20206;-48
2022/11/17 01:15:35;;;;;;;1.70;1.60;;;8.00;99.90;;;;;;5069021;28;20199;-49
2022/11/17 01:18:03;;;;;;;1.50;1.40;;;7.90;99.90;;;;;;5062500;28;20235;-49
2022/11/17 01:20:30;;;;;;;1.70;1.33;;;7.90;99.90;;;;;;5069695;28;20199;-49
2022/11/17 01:22:58;;;;;;;1.33;1.20;;;7.90;99.90;;;;;;5068821;28;20233;-48
2022/11/17 01:25:25;;;;;;;1.80;1.67;;;8.00;99.90;;;;;;5069764;28;20260;-49
2022/11/17 01:27:52;;;;;;;1.63;1.20;;;8.10;99.90;;;;;;5060818;28;20701;-48
2022/11/17 01:30:19;;;;;;;1.70;1.60;;;8.20;99.90;;;;;;5065711;28;20214;-49
2022/11/17 01:32:46;;;;;;;3.80;2.27;;;8.20;99.90;;;;;;5072014;28;20205;-49
2022/11/17 01:35:13;;;;;;;1.63;1.53;;;8.10;99.90;;;;;;5071817;28;20550;-48
2022/11/17 01:37:40;;;;;;;4.10;1.77;;;8.10;99.90;;;;;;5064149;28;20219;-48
2022/11/17 01:40:12;;;;;;;1.40;1.30;;;8.10;99.90;;;;;;5072510;28;20201;-48
2022/11/17 01:42:39;;;;;;;1.90;1.80;;;8.10;99.90;;;;;;5072708;28;20211;-48
2022/11/17 01:45:19;;;;;;;2.27;1.67;;;8.10;99.90;;;;;;5070018;28;20218;-48
2022/11/17 01:47:49;;;;;;;2.73;1.90;;;8.10;99.90;;;;;;5069883;28;20236;-48
2022/11/17 01:50:30;;;;;;;2.80;1.87;;;8.10;99.90;;;;;;5072636;28;20218;-48
2022/11/17 01:52:59;;;;;;;3.47;1.70;;;8.10;99.90;;;;;;5064720;28;20206;-48
2022/11/17 01:55:35;;;;;;;1.50;1.40;;;8.10;99.90;;;;;;5071712;28;20210;-48
2022/11/17 01:58:08;;;;;;;1.63;1.53;;;8.10;99.90;;;;;;5071469;28;20239;-48
2022/11/17 02:00:35;;;;;;;1.90;1.30;;;8.10;99.90;;;;;;5073401;28;20274;-48
2022/11/17 02:03:05;;;;;;;2.00;1.47;;;8.10;99.90;;;;;;5061556;28;20208;-48
2022/11/17 02:05:41;;;;;;;1.50;1.23;;;8.10;99.90;;;;;;5070677;28;20207;-48
2022/11/17 02:08:10;;;;;;;1.30;1.20;;;8.10;99.90;;;;;;5071228;28;20214;-48
2022/11/17 02:10:40;;;;;;;1.73;1.33;;;8.00;99.90;;;;;;5071951;28;20198;-49
2022/11/17 02:13:08;;;;;;;1.30;1.20;;;8.00;99.90;;;;;;5070440;28;20201;-49
2022/11/17 02:15:35;;;;;;;1.20;1.10;;;8.00;99.90;;;;;;5071021;28;20234;-48
2022/11/17 02:18:02;;;;;;;1.17;0.90;;;7.90;99.90;;;;;;5069360;28;20570;-48
2022/11/17 02:20:50;;;;;;;1.23;1.13;;;7.90;99.90;;;;;;5071983;28;20221;-49
2022/11/17 02:23:59;;;;;;;1.13;1.13;;;7.90;99.90;;;;;;5067354;28;20231;-50
2022/11/17 02:26:58;;;;;;;2.90;1.00;;;7.90;99.90;;;;;;5066427;28;20681;-50
2022/11/17 02:29:34;;;;;;;1.13;1.03;;;7.80;99.90;;;;;;5068899;28;20209;-49
2022/11/17 02:32:08;;;;;;;0.60;0.60;;;7.80;99.90;;;;;;5072783;28;20198;-50
2022/11/17 02:34:40;;;;;;;1.87;1.10;;;7.80;99.90;;;;;;5070856;28;20215;-50
2022/11/17 02:37:15;;;;;;;0.97;0.97;;;7.80;99.90;;;;;;5063530;28;20230;-49
2022/11/17 02:39:47;;;;;;;1.83;1.30;;;7.80;99.90;;;;;;5070263;28;20231;-49
2022/11/17 02:44:02;;;;;;;0.93;0.93;;;7.80;99.90;;;;;;5071583;28;20221;-49
2022/11/17 02:45:13;;;;;;;2.43;1.03;;;7.70;99.90;;;;;;5057573;28;20260;-49
2022/11/17 02:47:42;;;;;;;0.87;0.87;;;7.70;99.90;;;;;;5031079;28;20776;-49
2022/11/17 02:50:11;;;;;;;0.87;0.87;;;7.60;99.90;;;;;;5031663;28;20208;-49
2022/11/17 02:52:38;;;;;;;1.23;0.80;;;7.50;99.90;;;;;;5023101;28;20202;-48
2022/11/17 02:55:08;;;;;;;1.40;1.30;;;7.50;99.90;;;;;;5017633;28;20233;-49
2022/11/17 02:57:37;;;;;;;1.33;1.33;;;7.40;99.90;;;;;;5027042;28;20320;-49
2022/11/17 03:00:10;;;;;;;1.63;1.53;;;7.30;99.90;;;;;;5024712;28;20271;-49
2022/11/17 03:02:57;;;;;;;1.63;1.50;;;7.20;99.90;;;;;;5031727;28;20200;-48
2022/11/17 03:05:33;;;;;;;1.90;1.80;;;7.10;99.90;;;;;;5030632;28;20580;-49
2022/11/17 03:08:13;;;;;;;2.40;2.20;;;7.20;99.90;;;;;;5030469;28;20216;-49
2022/11/17 03:10:49;;;;;;;2.27;2.17;;;7.20;99.90;;;;;;5031163;28;20215;-50
2022/11/17 03:13:24;;;;;;;2.20;2.10;;;7.10;99.90;;;;;;5029834;28;20248;-49
2022/11/17 03:15:56;;;;;;;2.23;2.07;;;7.10;99.90;;;;;;5027483;28;20290;-49
2022/11/17 03:18:30;;;;;;;2.17;2.07;;;7.20;99.90;;;;;;5026363;28;20229;-49
2022/11/17 03:21:10;;;;;;;3.93;2.30;;;7.30;99.90;;;;;;5031320;28;20266;-49
2022/11/17 03:23:42;;;;;;;2.30;2.20;;;7.40;99.90;;;;;;5030556;28;20681;-48
2022/11/17 03:26:13;;;;;;;1.40;1.30;;;7.40;99.90;;;;;;5029335;28;20647;-49
2022/11/17 03:28:44;;;;;;;1.87;1.77;;;7.40;99.90;;;;;;5027709;28;20216;-49
2022/11/17 03:31:13;;;;;;;1.67;1.57;;;7.40;99.90;;;;;;5028132;28;20213;-49
2022/11/17 03:33:45;;;;;;;2.05;1.85;;;7.40;99.90;;;;;;5028711;28;20951;-48
2022/11/17 03:36:15;;;;;;;2.53;2.33;;;7.50;99.90;;;;;;5029136;28;20206;-49
2022/11/17 03:38:54;;;;;;;1.30;1.20;;;7.60;99.90;;;;;;5031897;28;20236;-49
2022/11/17 03:41:23;;;;;;;1.40;1.10;;;7.70;99.90;;;;;;5030891;28;20211;-49
2022/11/17 03:43:54;;;;;;;0.63;0.63;;;7.80;99.90;;;;;;5030118;28;20212;-48
2022/11/17 03:46:23;;;;;;;0.60;0.60;;;7.90;99.90;;;;;;5028022;28;20229;-48
2022/11/17 03:48:57;;;;;;;2.33;0.93;;;8.10;99.90;;;;;;5028587;28;20235;-49
2022/11/17 03:51:28;;;;;;;0.70;0.70;;;8.20;99.90;;;;;;5026031;28;20201;-49
2022/11/17 03:53:56;;;;;;;1.63;0.77;;;8.30;99.90;;;;;;5027198;28;21690;-49
2022/11/17 03:56:34;;;;;;;0.63;0.53;;;8.40;99.90;;;;;;5031484;28;20654;-49
2022/11/17 03:59:05;;;;;;;0.60;0.60;;;8.40;99.90;;;;;;5023477;28;20219;-49
2022/11/17 04:01:33;;;;;;;0.93;0.80;;;8.40;99.90;;;;;;5031222;28;20209;-49
2022/11/17 04:04:02;;;;;;;0.93;0.67;;;8.30;99.90;;;;;;5030107;28;20216;-49
2022/11/17 04:06:29;;;;;;;0.93;0.70;;;8.20;99.90;;;;;;5030199;28;20207;-49
2022/11/17 04:08:56;;;;;;;0.70;0.70;;;8.20;99.90;;;;;;5020538;28;20197;-49
2022/11/17 04:16:54;;;;;;;0.80;0.80;;;8.00;99.90;;;;;;5023167;28;20218;-49
2022/11/17 04:19:26;;;;;;;0.60;0.50;;;7.90;99.90;;;;;;5029268;28;20276;-48
2022/11/17 04:21:53;;;;;;;1.20;0.70;;;7.90;99.90;;;;;;5030291;28;20204;-49
2022/11/17 04:24:20;;;;;;;1.37;0.90;;;7.80;99.90;;;;;;5029545;28;20210;-48
2022/11/17 04:29:32;;;;;;;11.17;1.07;;;7.80;99.90;;;;;;5029613;28;20314;-48
2022/11/17 04:31:59;;;;;;;0.90;0.90;;;7.80;99.90;;;;;;5029841;28;20627;-49
2022/11/17 04:34:28;;;;;;;2.27;1.10;;;7.80;99.90;;;;;;5028902;28;20209;-48
2022/11/17 04:36:55;;;;;;;3.03;1.20;;;7.80;99.90;;;;;;5030865;28;20232;-48
2022/11/17 04:39:22;;;;;;;2.90;1.67;;;7.80;99.90;;;;;;5024092;28;20737;-48
2022/11/17 04:41:55;;;;;;;1.00;1.00;;;7.80;99.90;;;;;;5024155;28;20200;-49
2022/11/17 04:44:27;;;;;;;1.33;1.27;;;7.70;99.90;;;;;;5028372;28;20228;-49
2022/11/17 04:46:54;;;;;;;2.00;1.13;;;7.80;99.90;;;;;;5027621;28;20652;-49
2022/11/17 04:49:23;;;;;;;1.10;1.10;;;7.70;99.90;;;;;;5028644;28;20249;-49
2022/11/17 04:51:52;;;;;;;1.77;1.43;;;7.60;99.90;;;;;;5030416;28;20204;-48
2022/11/17 04:54:25;;;;;;;1.63;1.17;;;7.60;99.90;;;;;;5025677;28;20198;-49
2022/11/17 04:56:54;;;;;;;1.63;1.37;;;7.70;99.90;;;;;;5021901;28;20289;-48
2022/11/17 04:59:25;;;;;;;2.27;2.07;;;7.70;99.90;;;;;;5024888;28;20633;-49
2022/11/17 05:01:52;;;;;;;2.00;1.10;;;7.70;99.90;;;;;;5029458;28;20220;-49
2022/11/17 05:07:04;;;;;;;2.20;0.87;;;7.60;99.90;;;;;;5030559;28;20223;-48
2022/11/17 05:09:31;;;;;;;1.13;1.10;;;7.50;99.90;;;;;;5030512;28;20242;-49
2022/11/17 05:14:46;;;;;;;1.83;1.20;;;7.50;99.90;;;;;;5015112;28;20202;-49
2022/11/17 05:17:12;;;;;;;1.90;1.10;;;7.50;99.90;;;;;;5033544;28;20315;-48
2022/11/17 05:19:43;;;;;;;1.53;1.43;;;7.50;99.90;;;;;;5031587;28;20259;-48
2022/11/17 05:24:57;;;;;;;1.07;1.07;;;7.50;99.90;;;;;;5032078;28;20228;-48
2022/11/17 05:27:25;;;;;;;2.87;1.40;;;7.50;99.90;;;;;;5030166;28;20758;-53
2022/11/17 05:29:52;;;;;;;1.53;1.33;;;7.50;99.90;;;;;;5029126;28;20868;-49
2022/11/17 05:32:19;;;;;;;1.13;1.13;;;7.50;99.90;;;;;;5032954;28;20212;-48
2022/11/17 05:34:46;;;;;;;3.87;2.13;;;7.50;99.90;;;;;;5032203;28;20250;-48
2022/11/17 05:37:15;;;;;;;2.43;2.23;;;7.50;99.90;;;;;;5029673;28;20223;-49
2022/11/17 05:39:42;;;;;;;3.07;2.60;;;7.60;99.90;;;;;;5032002;28;20278;-49
2022/11/17 05:42:09;;;;;;;2.33;2.13;;;7.60;99.90;;;;;;5029244;28;20367;-49
2022/11/17 05:44:36;;;;;;;2.23;1.73;;;7.60;99.90;;;;;;5030019;28;20219;-48
2022/11/17 05:47:03;;;;;;;2.17;1.37;;;7.60;99.90;;;;;;5032472;28;20239;-49
2022/11/17 05:49:30;;;;;;;3.67;1.63;;;7.60;99.90;;;;;;5032094;28;20196;-49
2022/11/17 05:51:57;;;;;;;1.87;1.77;;;7.70;99.90;;;;;;5030520;28;20258;-49
2022/11/17 05:54:27;;;;;;;1.57;1.47;;;7.70;99.90;;;;;;5031142;28;20288;-49
2022/11/17 05:56:59;;;;;;;1.90;1.80;;;7.70;99.90;;;;;;5031625;28;20220;-49
2022/11/17 05:59:30;;;;;;;2.00;1.80;;;7.70;99.90;;;;;;5032495;28;20224;-48
2022/11/17 06:02:02;;;;;;;1.40;1.30;;;7.80;99.90;;;;;;5032760;28;20200;-48
2022/11/17 06:04:30;;;;;;;3.30;3.03;;;7.80;99.90;;;;;;5029040;28;21770;-49
2022/11/17 06:06:58;;;;;;;2.60;2.30;;;8.00;99.90;;;;;;5032406;28;20274;-48
2022/11/17 06:09:30;;;;;;;1.90;1.77;;;8.10;99.90;;;;;;5032886;28;20229;-49
2022/11/17 06:11:57;;;;;;;1.70;1.60;;;8.00;99.90;;;;;;5028679;28;20200;-48
2022/11/17 06:14:28;;;;;;;2.37;1.13;;;8.00;99.90;;;;;;5031261;28;20205;-48
2022/11/17 06:16:58;;;;;;;1.40;1.30;;;8.10;99.90;;;;;;5032087;28;20218;-48
2022/11/17 06:19:29;;;;;;;1.70;1.13;;;8.10;99.90;;;;;;5032754;28;20216;-48
2022/11/17 06:21:56;;;;;;;3.17;1.53;;;8.10;99.90;;;;;;5032679;28;20212;-51
2022/11/17 06:24:24;;;;;;;4.23;1.17;;;8.00;99.90;;;;;;5031628;28;20414;-50
2022/11/17 06:26:52;;;;;;;2.37;1.00;;;8.00;99.90;;;;;;5031102;28;20228;-51
2022/11/17 06:29:23;;;;;;;1.40;1.00;;;8.00;99.90;;;;;;5032318;28;20210;-51
2022/11/17 06:31:50;;;;;;;1.83;0.93;;;7.90;99.90;;;;;;5030869;28;20200;-51
2022/11/17 06:34:17;;;;;;;1.50;1.40;;;7.90;99.90;;;;;;5030819;28;20271;-51
2022/11/17 06:36:44;;;;;;;1.90;1.60;;;7.80;99.90;;;;;;5032921;28;20622;-52
2022/11/17 06:39:11;;;;;;;3.60;1.97;;;7.80;99.90;;;;;;5032092;28;20702;-51
2022/11/17 06:41:38;;;;;;;2.47;2.37;;;7.80;99.90;;;;;;5022933;28;20705;-52
2022/11/17 06:44:07;;;;;;;2.67;2.53;;;7.90;99.90;;;;;;5030204;28;20204;-50
2022/11/17 06:46:37;;;;;;;5.23;3.60;;;7.80;99.90;;;;;;5028327;28;20578;-50
2022/11/17 06:49:06;;;;;;;9.07;7.50;;;7.80;99.90;;;;;;5028063;28;20624;-52
2022/11/17 06:51:33;;;;;;;13.67;9.77;;;7.80;99.90;;;;;;5031225;28;20286;-51
2022/11/17 06:54:00;;;;;;;10.13;8.50;;;7.80;99.90;;;;;;5029081;28;20203;-51
2022/11/17 06:56:28;;;;;;;6.17;5.47;;;7.80;99.90;;;;;;5029210;28;20205;-49
2022/11/17 06:58:55;;;;;;;7.33;5.27;;;8.00;99.90;;;;;;5031757;28;20278;-51
2022/11/17 07:01:24;;;;;;;4.20;3.80;;;8.00;99.90;;;;;;5033331;28;20717;-51
2022/11/17 07:03:51;;;;;;;2.90;2.60;;;7.90;99.90;;;;;;5025929;28;20247;-52
2022/11/17 07:06:18;;;;;;;3.00;1.47;;;7.90;99.90;;;;;;5029943;28;20244;-50
2022/11/17 07:08:46;;;;;;;9.80;5.07;;;7.90;99.90;;;;;;5030370;28;20708;-50
2022/11/17 07:11:15;;;;;;;7.57;6.00;;;8.00;99.90;;;;;;5026190;28;20689;-52
2022/11/17 07:13:42;;;;;;;2.33;1.93;;;8.10;99.90;;;;;;5027931;28;20197;-50
2022/11/17 07:16:11;;;;;;;2.03;1.20;;;8.20;99.90;;;;;;5027175;28;20239;-51
2022/11/17 07:18:41;;;;;;;1.13;1.13;;;8.20;99.90;;;;;;5026149;28;20619;-50
2022/11/17 07:21:10;;;;;;;3.53;1.47;;;8.20;99.90;;;;;;5030257;28;20658;-51
2022/11/17 07:23:38;;;;;;;1.23;1.13;;;8.20;99.90;;;;;;5028477;28;20205;-52
2022/11/17 07:26:06;;;;;;;1.57;1.00;;;8.30;99.90;;;;;;5029804;28;20215;-52
2022/11/17 07:28:34;;;;;;;3.60;0.90;;;8.40;99.90;;;;;;5030480;28;20213;-52
2022/11/17 07:31:02;;;;;;;1.03;0.77;;;8.30;99.90;;;;;;5030804;28;20201;-51
2022/11/17 07:33:29;;;;;;;2.60;0.80;;;8.30;99.90;;;;;;5024459;28;20688;-52
2022/11/17 07:36:02;;;;;;;1.37;1.20;;;8.40;99.90;;;;;;5022483;28;20876;-51
2022/11/17 07:38:31;;;;;;;2.67;2.43;;;8.40;99.90;;;;;;5031822;28;20267;-50
2022/11/17 07:40:58;;;;;;;2.57;2.37;;;8.50;99.90;;;;;;5030741;28;20216;-51
2022/11/17 07:43:26;;;;;;;3.20;3.00;;;8.50;99.90;;;;;;5029359;28;20283;-51
2022/11/17 07:45:53;;;;;;;3.63;2.67;;;8.50;99.90;;;;;;5030862;28;20258;-51
2022/11/17 07:48:20;;;;;;;2.20;2.10;;;8.40;99.90;;;;;;5029975;28;20310;-52
2022/11/17 07:50:47;;;;;;;4.37;2.30;;;8.40;99.90;;;;;;5022539;28;20201;-51
2022/11/17 07:53:15;;;;;;;5.77;2.37;;;8.40;99.90;;;;;;5029898;28;20686;-52
2022/11/17 07:55:42;;;;;;;3.07;2.87;;;8.40;99.90;;;;;;5028399;28;20199;-50
2022/11/17 07:58:09;;;;;;;3.00;2.23;;;8.40;99.90;;;;;;5028049;28;20740;-51
2022/11/17 08:00:36;;;;;;;3.17;2.20;;;8.40;99.90;;;;;;5029447;28;20266;-52
2022/11/17 08:03:05;;;;;;;4.17;2.47;;;8.40;99.90;;;;;;5024182;28;20201;-50
2022/11/17 08:05:34;;;;;;;2.47;2.20;;;8.40;99.90;;;;;;5025965;28;21870;-51
2022/11/17 08:08:01;;;;;;;3.83;2.10;;;8.50;99.90;;;;;;5024535;28;20677;-52
2022/11/17 08:10:30;;;;;;;2.20;2.07;;;8.40;99.90;;;;;;5028495;28;20205;-52
2022/11/17 08:12:58;;;;;;;5.87;3.37;;;8.40;99.90;;;;;;5029230;28;20231;-52
2022/11/17 08:15:25;;;;;;;3.63;2.40;;;8.40;99.90;;;;;;5026280;28;20241;-51
2022/11/17 08:17:53;;;;;;;5.40;2.40;;;8.50;99.90;;;;;;5024026;28;20221;-52
2022/11/17 08:20:21;;;;;;;3.00;2.60;;;8.60;99.90;;;;;;5028595;28;20265;-52
2022/11/17 08:22:50;;;;;;;3.33;2.97;;;8.70;99.90;;;;;;5027717;28;20205;-52
2022/11/17 08:25:18;;;;;;;3.70;2.77;;;8.80;99.90;;;;;;5027809;28;20228;-51
2022/11/17 08:27:47;;;;;;;4.50;2.70;;;8.80;99.90;;;;;;5023337;28;20226;-51
2022/11/17 08:30:15;;;;;;;4.20;2.73;;;8.90;99.90;;;;;;5019896;28;20292;-52
2022/11/17 08:32:47;;;;;;;5.17;3.77;;;9.00;99.90;;;;;;5027552;28;20233;-53
2022/11/17 08:35:14;;;;;;;3.13;2.80;;;9.10;99.90;;;;;;5027318;28;20292;-52
2022/11/17 08:37:41;;;;;;;4.67;3.53;;;9.20;99.90;;;;;;5026588;28;20634;-52
2022/11/17 08:40:10;;;;;;;3.33;2.33;;;9.30;99.90;;;;;;5029286;28;20268;-53
2022/11/17 08:42:37;;;;;;;2.10;1.97;;;9.30;99.90;;;;;;5025455;28;20379;-52
2022/11/17 08:45:07;;;;;;;3.67;2.13;;;9.40;99.90;;;;;;5022719;28;20537;-51
2022/11/17 08:47:34;;;;;;;2.57;2.37;;;9.40;99.90;;;;;;5024329;28;20259;-52
2022/11/17 08:50:01;;;;;;;2.83;1.80;;;9.40;99.90;;;;;;5025255;28;20295;-53
2022/11/17 08:52:29;;;;;;;3.07;2.37;;;9.60;99.90;;;;;;5027223;28;20197;-52
2022/11/17 08:54:56;;;;;;;3.83;3.40;;;9.70;99.90;;;;;;5028640;28;20194;-52
2022/11/17 08:57:23;;;;;;;5.33;3.77;;;10.00;99.90;;;;;;5029132;28;20746;-52
2022/11/17 08:59:50;;;;;;;3.27;2.97;;;10.10;99.90;;;;;;5027859;28;20251;-51
2022/11/17 09:02:18;;;;;;;3.50;3.30;;;10.00;99.90;;;;;;5028456;28;20265;-51
2022/11/17 09:04:46;;;;;;;3.63;3.33;;;10.20;99.90;;;;;;5028508;28;20280;-52
2022/11/17 09:07:13;;;;;;;3.03;2.47;;;10.50;99.90;;;;;;5028859;28;20307;-53
2022/11/17 09:09:40;;;;;;;3.20;2.30;;;11.00;99.90;;;;;;5028003;28;20196;-52
2022/11/17 09:12:07;;;;;;;2.50;1.87;;;11.50;99.90;;;;;;5026188;28;20200;-53
2022/11/17 09:14:35;;;;;;;4.37;2.97;;;11.40;99.90;;;;;;5024780;28;20206;-52
2022/11/17 09:17:01;;;;;;;4.27;2.87;;;11.60;99.90;;;;;;5028880;28;20267;-52
2022/11/17 09:19:30;;;;;;;3.30;1.80;;;11.80;99.90;;;;;;5028379;28;20216;-52
2022/11/17 09:21:57;;;;;;;1.43;1.33;;;11.70;99.90;;;;;;5027705;28;20261;-52
2022/11/17 09:24:26;;;;;;;1.83;1.73;;;11.50;99.90;;;;;;5027459;28;20207;-51
2022/11/17 09:26:53;;;;;;;1.90;1.80;;;11.30;99.90;;;;;;5027505;28;20640;-52
2022/11/17 09:29:24;;;;;;;3.00;2.00;;;11.00;99.90;;;;;;5028158;28;20656;-52
2022/11/17 09:31:51;;;;;;;2.70;1.93;;;10.80;99.90;;;;;;5026473;28;20204;-51
2022/11/17 09:34:18;;;;;;;1.90;1.80;;;10.60;99.90;;;;;;5029417;28;20205;-51
2022/11/17 09:36:47;;;;;;;5.63;1.83;;;10.30;99.90;;;;;;5029157;28;20622;-51
2022/11/17 09:39:14;;;;;;;2.70;2.50;;;10.20;99.90;;;;;;5018318;28;20576;-52
2022/11/17 09:41:44;;;;;;;3.17;1.70;;;10.10;99.90;;;;;;5026252;28;20713;-51
2022/11/17 09:44:24;;;;;;;2.50;2.40;;;10.00;99.90;;;;;;5026139;28;20213;-51
2022/11/17 09:47:00;;;;;;;2.87;2.37;;;9.90;99.90;;;;;;5025098;28;20228;-50
2022/11/17 09:49:39;;;;;;;3.53;2.03;;;9.90;99.90;;;;;;5026070;28;20192;-51
2022/11/17 09:52:16;;;;;;;2.70;2.20;;;9.90;99.90;;;;;;5027021;28;20258;-51
2022/11/17 09:54:49;;;;;;;2.73;2.50;;;9.90;99.90;;;;;;5031181;28;20260;-51
2022/11/17 09:57:24;;;;;;;5.07;3.50;;;9.80;99.90;;;;;;5026383;28;20231;-49
2022/11/17 10:00:02;;;;;;;4.27;3.83;;;9.80;99.90;;;;;;5028263;28;20239;-51
2022/11/17 10:02:30;;;;;;;2.57;2.37;;;9.80;99.90;;;;;;5030550;28;20201;-49
2022/11/17 10:04:57;;;;;;;2.37;2.10;;;9.90;99.90;;;;;;5031409;28;20317;-50
2022/11/17 10:07:26;;;;;;;2.97;2.00;;;9.90;99.90;;;;;;5029471;28;20645;-50
2022/11/17 10:09:55;;;;;;;5.73;2.20;;;9.90;99.90;;;;;;5031333;28;20643;-52
2022/11/17 10:12:25;;;;;;;2.57;2.47;;;9.90;99.90;;;;;;5030335;28;20271;-50
2022/11/17 10:14:54;;;;;;;2.90;2.53;;;9.90;99.90;;;;;;5028877;28;21108;-50
2022/11/17 10:17:21;;;;;;;4.17;3.20;;;9.90;99.90;;;;;;5023771;28;20223;-51
2022/11/17 10:19:48;;;;;;;5.27;4.53;;;9.90;99.90;;;;;;5031240;28;20220;-51
2022/11/17 10:22:34;;;;;;;8.40;5.73;;;9.90;99.90;;;;;;5031262;28;20665;-51
2022/11/17 10:25:01;;;;;;;9.57;6.00;;;9.90;99.90;;;;;;5027496;28;20201;-51
2022/11/17 10:27:31;;;;;;;6.53;4.37;;;9.90;99.90;;;;;;5028826;28;20217;-51
2022/11/17 10:30:00;;;;;;;3.60;3.33;;;10.00;99.90;;;;;;5030600;28;20579;-51
2022/11/17 10:32:27;;;;;;;7.37;3.40;;;10.10;99.90;;;;;;5030851;28;20205;-50
2022/11/17 10:34:54;;;;;;;6.53;5.93;;;10.10;99.90;;;;;;5028729;28;20278;-50
2022/11/17 10:37:28;;;;;;;5.50;4.30;;;10.20;99.90;;;;;;5032150;28;20228;-51
2022/11/17 10:40:17;;;;;;;6.97;4.03;;;10.40;99.90;;;;;;5032432;28;20217;-52
2022/11/17 10:42:56;;;;;;;4.97;2.83;;;10.50;99.90;;;;;;5029716;28;20260;-50
2022/11/17 10:45:23;;;;;;;5.50;2.00;;;10.60;99.90;;;;;;5029159;28;20207;-52
2022/11/17 10:47:50;;;;;;;5.40;2.33;;;10.80;99.90;;;;;;5029587;28;20284;-51
2022/11/17 10:50:24;;;;;;;6.63;2.38;;;10.90;99.90;;;;;;5022575;28;20453;-51
2022/11/17 10:52:54;;;;;;;3.47;1.87;;;11.30;99.90;;;;;;5032097;28;20204;-51
2022/11/17 10:55:25;;;;;;;4.73;1.63;;;11.40;99.90;;;;;;5030014;28;20746;-51
2022/11/17 10:57:57;;;;;;;4.03;1.40;;;11.40;99.90;;;;;;5029377;28;20282;-52
2022/11/17 11:00:30;;;;;;;0.60;0.60;;;11.50;99.90;;;;;;5031531;28;20773;-52
2022/11/17 11:03:18;;;;;;;0.70;0.70;;;11.60;99.90;;;;;;5031892;28;20254;-50
2022/11/17 11:06:06;;;;;;;1.43;0.50;;;11.70;99.90;;;;;;5031050;28;20655;-51
2022/11/17 11:08:49;;;;;;;1.57;0.80;;;11.80;99.90;;;;;;5032026;28;20225;-51
2022/11/17 11:11:36;;;;;;;1.20;0.60;;;12.00;99.90;;;;;;5027900;28;20264;-51
2022/11/17 11:14:12;;;;;;;5.37;1.50;;;12.10;99.90;;;;;;5027380;28;20686;-52
2022/11/17 11:16:40;;;;;;;1.63;0.60;;;12.20;99.90;;;;;;5030850;28;20330;-52
2022/11/17 11:19:13;;;;;;;1.40;0.80;;;12.40;99.90;;;;;;5030809;28;20254;-52
2022/11/17 11:21:59;;;;;;;4.23;1.57;;;12.40;99.90;;;;;;5029500;28;20602;-52
2022/11/17 11:24:38;;;;;;;3.77;1.10;;;12.40;99.90;;;;;;5029428;28;20272;-51
2022/11/17 11:27:23;;;;;;;1.87;0.93;;;12.40;99.90;;;;;;5029281;28;20221;-51
2022/11/17 11:30:01;;;;;;;5.27;1.43;;;12.50;99.90;;;;;;5030811;28;20250;-51
2022/11/17 11:32:41;;;;;;;2.87;1.10;;;12.60;99.90;;;;;;5031897;28;20303;-51
2022/11/17 11:35:35;;;;;;;1.03;0.60;;;12.60;99.90;;;;;;5031291;28;20202;-51
2022/11/17 11:38:17;;;;;;;0.60;0.40;;;12.60;99.90;;;;;;5029973;28;20226;-51
2022/11/17 11:40:58;;;;;;;2.00;0.53;;;12.60;99.90;;;;;;5024998;28;20230;-50
2022/11/17 11:43:33;;;;;;;2.00;0.60;;;12.60;99.90;;;;;;5024089;28;20343;-51
2022/11/17 11:46:08;;;;;;;2.00;1.40;;;12.80;99.90;;;;;;5012213;28;20662;-51
2022/11/17 11:48:36;;;;;;;3.07;0.90;;;12.80;99.90;;;;;;5028451;28;20244;-51
2022/11/17 11:51:10;;;;;;;1.83;0.93;;;12.70;99.90;;;;;;5030550;28;20208;-51
2022/11/17 11:53:46;;;;;;;2.53;1.23;;;12.60;99.90;;;;;;5014514;28;20264;-51
2022/11/17 11:56:19;;;;;;;4.93;1.43;;;12.50;99.90;;;;;;5014174;28;20267;-53
2022/11/17 11:59:01;;;;;;;2.25;1.60;;;12.40;99.90;;;;;;5029255;28;20453;-51
2022/11/17 12:01:36;;;;;;;4.97;2.53;;;12.30;99.90;;;;;;5016073;28;20226;-51
2022/11/17 12:04:14;;;;;;;2.57;1.13;;;12.20;99.90;;;;;;5010767;28;20656;-51
2022/11/17 12:06:48;;;;;;;3.67;1.40;;;12.30;99.90;;;;;;5016429;28;20205;-50
2022/11/17 12:09:45;;;;;;;4.83;2.87;;;12.30;99.90;;;;;;5029956;28;20671;-50
2022/11/17 12:12:17;;;;;;;7.50;2.53;;;12.50;99.90;;;;;;5011281;28;20205;-51
2022/11/17 12:15:17;;;;;;;4.70;2.63;;;12.70;99.90;;;;;;5009923;28;20271;-51
2022/11/17 12:17:58;;;;;;;4.50;2.20;;;12.90;99.90;;;;;;5024671;28;20233;-52
2022/11/17 12:24:06;;;;;;;1.20;1.10;;;13.40;99.90;;;;;;5084423;23;20299;-48
2022/11/17 12:26:35;;;;;;;3.57;2.23;;;13.50;99.90;;;;;;5031890;28;20587;-46
2022/11/17 12:29:31;;;;;;;5.00;2.30;;;13.40;99.90;;;;;;5031047;28;20197;-47
2022/11/17 12:31:59;;;;;;;3.07;2.73;;;13.40;99.90;;;;;;5031977;28;20789;-48
2022/11/17 12:34:31;;;;;;;2.73;1.03;;;13.40;99.90;;;;;;5029600;28;20290;-47
2022/11/17 12:37:25;;;;;;;4.10;1.00;;;13.50;99.90;;;;;;5031943;28;20206;-48
2022/11/17 12:40:00;;;;;;;4.37;0.53;;;13.60;99.90;;;;;;5020990;28;20206;-48
2022/11/17 12:42:28;;;;;;;3.70;0.90;;;13.60;99.90;;;;;;5031644;28;20225;-48
2022/11/17 12:45:14;;;;;;;3.07;0.90;;;13.60;99.90;;;;;;5030762;28;20214;-48
2022/11/17 12:47:45;;;;;;;1.57;0.40;;;13.70;99.90;;;;;;5030960;28;20202;-47
2022/11/17 12:50:40;;;;;;;2.83;1.63;;;13.70;99.90;;;;;;5022393;28;20675;-47
2022/11/17 12:53:34;;;;;;;3.10;1.80;;;13.70;99.90;;;;;;5019026;28;20219;-47
2022/11/17 12:56:37;;;;;;;2.40;0.80;;;13.70;99.90;;;;;;5014595;28;20700;-48
2022/11/17 12:59:51;;;;;;;5.50;1.27;;;13.80;99.90;;;;;;5023745;28;20285;-48
2022/11/17 13:02:40;;;;;;;3.77;1.03;;;13.80;99.90;;;;;;5031420;28;20305;-47
2022/11/17 13:05:14;;;;;;;3.97;1.37;;;13.70;99.90;;;;;;5030692;28;20756;-47
2022/11/17 13:07:42;;;;;;;5.53;1.30;;;13.90;99.90;;;;;;5022323;28;20209;-47
2022/11/17 13:10:24;;;;;;;3.43;2.20;;;13.90;99.90;;;;;;5030325;28;20202;-47
2022/11/17 13:13:09;;;;;;;7.33;2.13;;;13.80;99.90;;;;;;5011592;28;20223;-47
2022/11/17 13:15:36;;;;;;;4.07;2.60;;;13.80;99.90;;;;;;5013205;28;20207;-47
2022/11/17 13:18:10;;;;;;;3.23;1.70;;;13.70;99.90;;;;;;5027327;28;20253;-48
2022/11/17 13:20:39;;;;;;;1.27;1.17;;;13.80;99.90;;;;;;5011820;28;20281;-47
2022/11/17 13:23:13;;;;;;;2.43;1.47;;;13.80;99.90;;;;;;5010589;28;20342;-47
2022/11/17 13:25:40;;;;;;;2.60;1.90;;;14.00;99.90;;;;;;5016317;28;20207;-48
2022/11/17 13:28:26;;;;;;;6.20;1.50;;;14.20;99.90;;;;;;5030871;28;20290;-48
2022/11/17 13:30:53;;;;;;;2.33;2.07;;;14.30;99.90;;;;;;5015349;28;20696;-48
2022/11/17 13:33:24;;;;;;;4.23;1.00;;;14.30;99.90;;;;;;5013199;28;20226;-48
2022/11/17 13:36:08;;;;;;;3.33;1.40;;;14.30;99.90;;;;;;5016921;28;20237;-47
2022/11/17 13:38:35;;;;;;;2.73;1.10;;;14.20;99.90;;;;;;5023142;28;20439;-48
2022/11/17 13:41:03;;;;;;;1.93;1.30;;;14.30;99.90;;;;;;5015348;28;20577;-48
2022/11/17 13:43:39;;;;;;;1.50;1.30;;;14.20;99.90;;;;;;5013742;28;20677;-47
2022/11/17 13:46:06;;;;;;;4.17;1.53;;;14.20;99.90;;;;;;5030759;28;20642;-48